Time;durP1;ratioP1;P1;durP2;ratioP2;P2;SDS_P1;SDS_P2;PMS_P1;PMS_P2;Temp;Humidity;BMP_temperature;BMP_pressure;BME280_temperature;BME280_humidity;BME280_pressure;Samples;Min_cycle;Max_cycle;Signal;HPM_P1;HPM_P2
2021/08/02 00:01:40;;;;;;;2.13;1.55;;;;;;;;;;5032031;28;20461;-51
2021/08/02 00:04:09;;;;;;;1.98;1.55;;;;;;;;;;5032056;28;20041;-48
2021/08/02 00:06:42;;;;;;;3.72;1.90;;;;;;;;;;5031972;28;20044;-52
2021/08/02 00:09:09;;;;;;;2.83;2.05;;;;;;;;;;5012060;28;20467;-52
2021/08/02 00:11:40;;;;;;;2.40;1.70;;;;;;;;;;5012230;28;20062;-51
2021/08/02 00:14:08;;;;;;;3.25;1.70;;;;;;;;;;5012228;28;20052;-48
2021/08/02 00:16:36;;;;;;;3.83;1.80;;;;;;;;;;5011836;28;20069;-48
2021/08/02 00:19:05;;;;;;;4.03;2.10;;;;;;;;;;5011098;28;20076;-51
2021/08/02 00:21:32;;;;;;;3.05;1.88;;;;;;;;;;5011924;28;20077;-48
2021/08/02 00:23:59;;;;;;;2.88;1.83;;;;;;;;;;5011959;28;20570;-48
2021/08/02 00:26:27;;;;;;;4.00;2.05;;;;;;;;;;5011658;28;20137;-52
2021/08/02 00:29:00;;;;;;;4.53;1.70;;;;;;;;;;4993332;28;20046;-49
2021/08/02 00:31:27;;;;;;;3.97;1.90;;;;;;;;;;5010044;28;20307;-52
2021/08/02 00:33:54;;;;;;;2.53;1.92;;;;;;;;;;5010249;28;20045;-49
2021/08/02 00:36:25;;;;;;;2.65;1.83;;;;;;;;;;5010291;28;20120;-49
2021/08/02 00:38:58;;;;;;;3.65;2.40;;;;;;;;;;5010821;28;20125;-51
2021/08/02 00:41:38;;;;;;;2.50;1.77;;;;;;;;;;5011691;28;20045;-48
2021/08/02 00:44:04;;;;;;;4.75;1.70;;;;;;;;;;5010592;28;20034;-52
2021/08/02 00:46:39;;;;;;;7.20;2.10;;;;;;;;;;5011717;28;20050;-48
2021/08/02 00:49:07;;;;;;;5.57;2.13;;;;;;;;;;5019994;28;20107;-52
2021/08/02 00:51:37;;;;;;;2.75;2.00;;;;;;;;;;5027091;28;20056;-48
2021/08/02 00:54:05;;;;;;;3.95;2.15;;;;;;;;;;5011588;28;20067;-51
2021/08/02 00:56:33;;;;;;;4.30;2.30;;;;;;;;;;5010028;28;20057;-51
2021/08/02 00:59:04;;;;;;;3.30;2.05;;;;;;;;;;5010281;28;20149;-48
2021/08/02 01:01:33;;;;;;;2.70;1.85;;;;;;;;;;5009918;28;20472;-52
2021/08/02 01:04:01;;;;;;;2.92;1.77;;;;;;;;;;5010144;28;20044;-48
2021/08/02 01:06:30;;;;;;;4.05;2.05;;;;;;;;;;5009799;28;20045;-47
2021/08/02 01:09:02;;;;;;;7.20;2.33;;;;;;;;;;5010516;28;20127;-49
2021/08/02 01:11:31;;;;;;;3.60;2.38;;;;;;;;;;5009875;28;20050;-48
2021/08/02 01:14:01;;;;;;;4.32;2.47;;;;;;;;;;5009947;28;20046;-46
2021/08/02 01:16:30;;;;;;;4.88;2.05;;;;;;;;;;5019857;28;20414;-52
2021/08/02 01:18:58;;;;;;;4.30;2.50;;;;;;;;;;5010193;28;20053;-48
2021/08/02 01:21:28;;;;;;;4.82;2.35;;;;;;;;;;5009783;28;20038;-47
2021/08/02 01:23:55;;;;;;;4.38;2.05;;;;;;;;;;5011071;28;20033;-47
2021/08/02 01:26:43;;;;;;;2.70;2.00;;;;;;;;;;5011083;28;20053;-52
2021/08/02 01:29:46;;;;;;;3.15;2.00;;;;;;;;;;5010074;28;20513;-50
2021/08/02 01:32:14;;;;;;;2.45;1.90;;;;;;;;;;4999023;28;20108;-48
2021/08/02 01:34:42;;;;;;;4.07;2.28;;;;;;;;;;5011011;28;20526;-48
2021/08/02 01:37:10;;;;;;;3.65;2.17;;;;;;;;;;5010953;28;20472;-50
2021/08/02 01:39:42;;;;;;;3.22;2.10;;;;;;;;;;5010534;28;20046;-49
2021/08/02 01:42:10;;;;;;;4.40;2.33;;;;;;;;;;5026167;28;20069;-49
2021/08/02 01:44:37;;;;;;;2.78;2.10;;;;;;;;;;5014060;28;20070;-53
2021/08/02 01:47:05;;;;;;;2.72;2.00;;;;;;;;;;5013397;28;20495;-53
2021/08/02 01:49:41;;;;;;;4.05;2.13;;;;;;;;;;5012926;28;20042;-48
2021/08/02 01:52:13;;;;;;;4.13;2.65;;;;;;;;;;5013477;28;20240;-47
2021/08/02 01:54:42;;;;;;;4.40;2.50;;;;;;;;;;5014755;28;20038;-50
2021/08/02 01:57:23;;;;;;;3.45;1.92;;;;;;;;;;5014696;28;20037;-48
2021/08/02 02:00:00;;;;;;;3.17;2.40;;;;;;;;;;5013537;28;20042;-50
2021/08/02 02:02:47;;;;;;;3.20;2.50;;;;;;;;;;5014299;28;20104;-51
2021/08/02 02:05:19;;;;;;;3.37;2.50;;;;;;;;;;5013448;28;20065;-50
2021/08/02 02:07:51;;;;;;;4.07;2.42;;;;;;;;;;5012998;28;20358;-54
2021/08/02 02:10:29;;;;;;;3.90;2.40;;;;;;;;;;5027452;28;20049;-47
2021/08/02 02:12:56;;;;;;;4.05;2.60;;;;;;;;;;5014078;28;20049;-51
2021/08/02 02:15:26;;;;;;;5.50;2.45;;;;;;;;;;5014143;28;20407;-48
2021/08/02 02:17:55;;;;;;;3.72;2.63;;;;;;;;;;5018263;28;20553;-48
2021/08/02 02:20:22;;;;;;;4.55;2.75;;;;;;;;;;5013731;28;20117;-47
2021/08/02 02:22:50;;;;;;;4.07;2.60;;;;;;;;;;5012713;28;20049;-53
2021/08/02 02:25:18;;;;;;;7.47;2.80;;;;;;;;;;5012836;28;20049;-49
2021/08/02 02:27:45;;;;;;;4.60;2.50;;;;;;;;;;5013512;28;20439;-47
2021/08/02 02:30:13;;;;;;;3.00;2.42;;;;;;;;;;5012468;28;20487;-49
2021/08/02 02:32:43;;;;;;;6.28;2.80;;;;;;;;;;5012730;28;20239;-52
2021/08/02 02:35:15;;;;;;;4.30;2.50;;;;;;;;;;5012659;28;20048;-56
2021/08/02 02:37:42;;;;;;;4.13;2.70;;;;;;;;;;4996254;28;20499;-48
2021/08/02 02:40:09;;;;;;;4.75;2.97;;;;;;;;;;5022852;28;20411;-52
2021/08/02 02:42:36;;;;;;;4.80;3.08;;;;;;;;;;5013746;28;20048;-52
2021/08/02 02:45:11;;;;;;;12.25;3.15;;;;;;;;;;5012608;28;20046;-50
2021/08/02 02:47:38;;;;;;;5.22;2.90;;;;;;;;;;5012186;28;20108;-51
2021/08/02 02:50:06;;;;;;;3.10;2.40;;;;;;;;;;5011342;28;20045;-48
2021/08/02 02:52:34;;;;;;;5.07;3.13;;;;;;;;;;5013317;28;20073;-49
2021/08/02 02:55:05;;;;;;;6.57;2.90;;;;;;;;;;5011563;28;20121;-48
2021/08/02 02:57:33;;;;;;;7.20;3.17;;;;;;;;;;5022672;28;20056;-47
2021/08/02 03:00:02;;;;;;;4.05;2.75;;;;;;;;;;5012348;28;20056;-48
2021/08/02 03:02:30;;;;;;;3.60;2.53;;;;;;;;;;5012107;28;20050;-47
2021/08/02 03:04:59;;;;;;;4.55;3.15;;;;;;;;;;5012232;28;20049;-51
2021/08/02 03:07:29;;;;;;;6.25;3.20;;;;;;;;;;5013397;28;20468;-49
2021/08/02 03:09:57;;;;;;;4.57;3.38;;;;;;;;;;5011430;28;20121;-51
2021/08/02 03:12:24;;;;;;;4.32;3.00;;;;;;;;;;5011923;28;20042;-54
2021/08/02 03:14:51;;;;;;;6.00;3.13;;;;;;;;;;5013054;28;20104;-50
2021/08/02 03:17:18;;;;;;;5.40;3.38;;;;;;;;;;5031207;28;20121;-49
2021/08/02 03:19:45;;;;;;;9.10;3.20;;;;;;;;;;5031912;28;20372;-51
2021/08/02 03:22:30;;;;;;;4.03;3.08;;;;;;;;;;5032795;28;20123;-50
2021/08/02 03:25:03;;;;;;;5.20;3.17;;;;;;;;;;5026623;28;20373;-51
2021/08/02 03:27:36;;;;;;;6.10;3.50;;;;;;;;;;5011700;28;20077;-48
2021/08/02 03:30:03;;;;;;;;;;;;;;;;;;5014973;28;20460;-47
2021/08/02 03:32:30;;;;;;;4.70;3.47;;;;;;;;;;5012724;28;19921;-47
2021/08/02 03:35:00;;;;;;;5.60;3.42;;;;;;;;;;5012815;28;20049;-51
2021/08/02 03:37:28;;;;;;;6.18;3.47;;;;;;;;;;5012803;28;20046;-48
2021/08/02 03:39:56;;;;;;;11.02;3.90;;;;;;;;;;5011547;28;20052;-47
2021/08/02 03:42:23;;;;;;;5.28;3.40;;;;;;;;;;5012358;28;20123;-48
2021/08/02 03:44:50;;;;;;;4.90;3.67;;;;;;;;;;5012496;28;20563;-48
2021/08/02 03:47:20;;;;;;;6.35;3.70;;;;;;;;;;5012173;28;20076;-47
2021/08/02 03:49:47;;;;;;;5.55;3.58;;;;;;;;;;5011814;28;20133;-48
2021/08/02 03:52:15;;;;;;;4.95;3.40;;;;;;;;;;5011110;28;20045;-48
2021/08/02 03:54:41;;;;;;;5.00;3.78;;;;;;;;;;5011084;28;20050;-48
2021/08/02 03:57:09;;;;;;;5.72;3.92;;;;;;;;;;5012006;28;20542;-50
2021/08/02 03:59:36;;;;;;;8.10;3.85;;;;;;;;;;5011473;28;20041;-48
2021/08/02 04:02:03;;;;;;;16.00;5.18;;;;;;;;;;5011784;28;20121;-49
2021/08/02 04:04:30;;;;;;;8.13;3.92;;;;;;;;;;5010877;28;20424;-51
2021/08/02 04:06:57;;;;;;;4.72;3.67;;;;;;;;;;5011069;28;20518;-47
2021/08/02 04:09:24;;;;;;;4.07;3.47;;;;;;;;;;5011283;28;20526;-49
2021/08/02 04:11:51;;;;;;;6.78;3.83;;;;;;;;;;5011987;28;20049;-53
2021/08/02 04:14:18;;;;;;;4.75;3.40;;;;;;;;;;5012022;28;20065;-48
2021/08/02 04:16:45;;;;;;;6.28;3.72;;;;;;;;;;5011686;28;20053;-49
2021/08/02 04:19:12;;;;;;;6.60;4.53;;;;;;;;;;5011300;28;20041;-51
2021/08/02 04:21:39;;;;;;;6.85;4.65;;;;;;;;;;5011947;28;20084;-50
2021/08/02 04:24:06;;;;;;;7.50;4.28;;;;;;;;;;5011643;28;20096;-50
2021/08/02 04:26:33;;;;;;;7.05;6.03;;;;;;;;;;5011575;28;20124;-50
2021/08/02 04:28:59;;;;;;;6.38;4.40;;;;;;;;;;5010979;28;20038;-47
2021/08/02 04:31:27;;;;;;;4.75;3.55;;;;;;;;;;5011282;28;20561;-49
2021/08/02 04:33:55;;;;;;;6.15;3.65;;;;;;;;;;5011850;28;20427;-48
2021/08/02 04:36:22;;;;;;;5.10;3.72;;;;;;;;;;5011864;28;20454;-49
2021/08/02 04:38:49;;;;;;;6.43;4.10;;;;;;;;;;5010825;28;20038;-46
2021/08/02 04:41:15;;;;;;;5.13;3.75;;;;;;;;;;5011629;28;20507;-46
2021/08/02 04:43:42;;;;;;;4.90;3.55;;;;;;;;;;5011580;28;20359;-46
2021/08/02 04:46:09;;;;;;;5.18;3.05;;;;;;;;;;5011381;28;20070;-48
2021/08/02 04:48:36;;;;;;;5.63;3.30;;;;;;;;;;5010678;28;20046;-53
2021/08/02 04:51:02;;;;;;;5.95;3.55;;;;;;;;;;5011363;28;20099;-47
2021/08/02 04:53:29;;;;;;;6.45;3.80;;;;;;;;;;5011275;28;20048;-50
2021/08/02 04:55:56;;;;;;;5.25;3.40;;;;;;;;;;5011421;28;20049;-52
2021/08/02 04:58:23;;;;;;;6.15;3.75;;;;;;;;;;5010437;28;20069;-48
2021/08/02 05:00:49;;;;;;;6.38;3.58;;;;;;;;;;5011153;28;20081;-47
2021/08/02 05:03:17;;;;;;;4.63;3.50;;;;;;;;;;5011365;28;20053;-48
2021/08/02 05:05:44;;;;;;;7.15;3.97;;;;;;;;;;5011032;28;20503;-54
2021/08/02 05:08:11;;;;;;;5.47;3.33;;;;;;;;;;5010519;28;20060;-49
2021/08/02 05:10:38;;;;;;;5.15;3.75;;;;;;;;;;5010989;28;20038;-47
2021/08/02 05:13:05;;;;;;;6.97;3.55;;;;;;;;;;5011314;28;20045;-52
2021/08/02 05:15:32;;;;;;;7.18;4.30;;;;;;;;;;5011123;28;20053;-51
2021/08/02 05:17:59;;;;;;;7.15;3.50;;;;;;;;;;5011393;28;20045;-47
2021/08/02 05:20:25;;;;;;;6.85;3.92;;;;;;;;;;5014967;28;20048;-52
2021/08/02 05:22:52;;;;;;;7.85;3.78;;;;;;;;;;5015253;28;20046;-47
2021/08/02 05:25:19;;;;;;;6.10;4.15;;;;;;;;;;5015064;28;20042;-50
2021/08/02 05:27:53;;;;;;;8.07;3.90;;;;;;;;;;5014675;28;20061;-49
2021/08/02 05:30:19;;;;;;;;;;;;;;;;;;5015190;28;20038;-52
2021/08/02 05:32:46;;;;;;;9.50;3.83;;;;;;;;;;5014827;28;20465;-47
2021/08/02 05:35:14;;;;;;;5.55;3.50;;;;;;;;;;5014757;28;20042;-47
2021/08/02 05:37:41;;;;;;;5.63;3.42;;;;;;;;;;5014702;28;20399;-47
2021/08/02 05:40:09;;;;;;;5.80;3.70;;;;;;;;;;5014014;28;20076;-50
2021/08/02 05:42:36;;;;;;;5.65;3.58;;;;;;;;;;5014666;28;20038;-47
2021/08/02 05:45:05;;;;;;;5.72;3.78;;;;;;;;;;5013637;28;20454;-57
2021/08/02 05:47:32;;;;;;;6.68;3.90;;;;;;;;;;5014786;28;20476;-46
2021/08/02 05:49:58;;;;;;;5.07;3.63;;;;;;;;;;5025373;28;20160;-46
2021/08/02 05:52:28;;;;;;;6.22;3.92;;;;;;;;;;5014724;28;20042;-49
2021/08/02 05:54:55;;;;;;;6.90;4.28;;;;;;;;;;5014900;28;20065;-47
2021/08/02 05:57:22;;;;;;;8.10;4.18;;;;;;;;;;5023432;28;20057;-51
2021/08/02 05:59:49;;;;;;;5.18;3.78;;;;;;;;;;5027454;28;20041;-49
2021/08/02 06:02:16;;;;;;;5.60;4.40;;;;;;;;;;5014522;28;20522;-51
2021/08/02 06:04:46;;;;;;;5.93;4.18;;;;;;;;;;5014390;28;20046;-47
2021/08/02 06:07:13;;;;;;;5.47;3.88;;;;;;;;;;5014121;28;20396;-49
2021/08/02 06:09:40;;;;;;;5.80;3.85;;;;;;;;;;5013497;28;20038;-46
2021/08/02 06:12:07;;;;;;;6.25;4.00;;;;;;;;;;5012790;28;20053;-48
2021/08/02 06:14:34;;;;;;;5.28;4.18;;;;;;;;;;5014243;28;20411;-48
2021/08/02 06:17:01;;;;;;;5.82;4.00;;;;;;;;;;5014105;28;20038;-52
2021/08/02 06:19:28;;;;;;;7.65;4.05;;;;;;;;;;5012272;28;20165;-49
2021/08/02 06:21:54;;;;;;;5.15;3.60;;;;;;;;;;5014120;28;20049;-47
2021/08/02 06:24:21;;;;;;;5.70;3.75;;;;;;;;;;5013927;28;20038;-51
2021/08/02 06:26:48;;;;;;;6.40;3.78;;;;;;;;;;5013746;28;20073;-47
2021/08/02 06:29:14;;;;;;;5.43;3.53;;;;;;;;;;5011369;28;20050;-49
2021/08/02 06:31:41;;;;;;;6.97;3.58;;;;;;;;;;5013167;28;20495;-46
2021/08/02 06:34:09;;;;;;;7.40;4.13;;;;;;;;;;5013993;28;20091;-49
2021/08/02 06:36:36;;;;;;;5.03;3.65;;;;;;;;;;5013719;28;20070;-48
2021/08/02 06:39:03;;;;;;;6.53;3.38;;;;;;;;;;5012795;28;20092;-48
2021/08/02 06:41:29;;;;;;;4.90;3.42;;;;;;;;;;5013938;28;20069;-47
2021/08/02 06:43:56;;;;;;;6.90;3.22;;;;;;;;;;5013560;28;20096;-50
2021/08/02 06:46:23;;;;;;;5.28;3.80;;;;;;;;;;5012341;28;20069;-50
2021/08/02 06:48:50;;;;;;;4.13;3.22;;;;;;;;;;5012939;28;20068;-47
2021/08/02 06:51:19;;;;;;;6.00;3.60;;;;;;;;;;5013570;28;20569;-46
2021/08/02 06:53:45;;;;;;;4.30;3.00;;;;;;;;;;5013150;28;20054;-47
2021/08/02 06:56:12;;;;;;;4.60;3.22;;;;;;;;;;5013578;28;20076;-52
2021/08/02 06:58:39;;;;;;;5.72;2.70;;;;;;;;;;5011648;28;20110;-46
2021/08/02 07:01:06;;;;;;;7.28;2.97;;;;;;;;;;5013562;28;20050;-47
2021/08/02 07:03:33;;;;;;;6.22;3.35;;;;;;;;;;5013240;28;20034;-47
2021/08/02 07:06:00;;;;;;;5.95;3.30;;;;;;;;;;5013163;28;20128;-44
2021/08/02 07:08:27;;;;;;;4.72;3.15;;;;;;;;;;5012664;28;20491;-49
2021/08/02 07:10:54;;;;;;;4.75;3.00;;;;;;;;;;5012879;28;20251;-47
2021/08/02 07:13:21;;;;;;;3.95;2.97;;;;;;;;;;5013416;28;20463;-53
2021/08/02 07:15:48;;;;;;;5.70;2.92;;;;;;;;;;5013414;28;20455;-48
2021/08/02 07:18:15;;;;;;;7.30;3.50;;;;;;;;;;5012262;28;20207;-48
2021/08/02 07:20:41;;;;;;;4.10;3.03;;;;;;;;;;5011915;28;20069;-49
2021/08/02 07:23:08;;;;;;;4.40;3.22;;;;;;;;;;5011895;28;20042;-47
2021/08/02 07:25:35;;;;;;;5.47;3.13;;;;;;;;;;5011720;28;20116;-55
2021/08/02 07:28:02;;;;;;;6.35;3.63;;;;;;;;;;5012219;28;20073;-58
2021/08/02 07:30:29;;;;;;;6.90;3.28;;;;;;;;;;5019168;28;20038;-53
2021/08/02 07:32:56;;;;;;;5.18;3.05;;;;;;;;;;5012719;28;20049;-54
2021/08/02 07:35:22;;;;;;;5.68;2.88;;;;;;;;;;5012891;28;20454;-51
2021/08/02 07:37:49;;;;;;;5.35;3.00;;;;;;;;;;5012681;28;20096;-52
2021/08/02 07:40:16;;;;;;;4.07;2.78;;;;;;;;;;5011797;28;20141;-48
2021/08/02 07:42:43;;;;;;;5.30;2.90;;;;;;;;;;5012389;28;20042;-52
2021/08/02 07:45:11;;;;;;;7.88;3.22;;;;;;;;;;5011329;28;20037;-50
2021/08/02 07:47:38;;;;;;;5.10;3.40;;;;;;;;;;5012444;28;20077;-55
2021/08/02 07:50:06;;;;;;;6.45;3.33;;;;;;;;;;5010484;28;20108;-57
2021/08/02 07:52:32;;;;;;;4.45;2.83;;;;;;;;;;5012171;28;20540;-54
2021/08/02 07:55:00;;;;;;;5.18;3.25;;;;;;;;;;5010922;28;20507;-55
2021/08/02 07:57:30;;;;;;;4.75;3.30;;;;;;;;;;5012054;28;20495;-56
2021/08/02 07:59:57;;;;;;;5.63;3.25;;;;;;;;;;5011406;28;20449;-54
2021/08/02 08:02:23;;;;;;;6.53;3.78;;;;;;;;;;5012161;28;20069;-57
2021/08/02 08:04:50;;;;;;;5.18;3.22;;;;;;;;;;5012298;28;20512;-56
2021/08/02 08:07:17;;;;;;;5.00;2.97;;;;;;;;;;5011901;28;20072;-56
2021/08/02 08:09:44;;;;;;;6.85;3.17;;;;;;;;;;5025318;28;20069;-56
2021/08/02 08:12:11;;;;;;;4.50;3.15;;;;;;;;;;5011064;28;20117;-56
2021/08/02 08:14:48;;;;;;;3.78;2.80;;;;;;;;;;5027769;28;20131;-55
2021/08/02 08:17:14;;;;;;;4.10;2.90;;;;;;;;;;5012403;28;20188;-57
2021/08/02 08:19:41;;;;;;;5.30;3.15;;;;;;;;;;5011814;28;20076;-54
2021/08/02 08:22:08;;;;;;;5.20;2.92;;;;;;;;;;5010858;28;20133;-48
2021/08/02 08:24:35;;;;;;;4.75;3.50;;;;;;;;;;5011777;28;20137;-48
2021/08/02 08:27:02;;;;;;;4.72;3.25;;;;;;;;;;5011707;28;20046;-50
2021/08/02 08:29:28;;;;;;;6.05;3.10;;;;;;;;;;5010866;28;20039;-52
2021/08/02 08:31:55;;;;;;;4.93;2.60;;;;;;;;;;5011698;28;20057;-49
2021/08/02 08:34:22;;;;;;;5.82;2.95;;;;;;;;;;5011588;28;20053;-52
2021/08/02 08:36:49;;;;;;;4.63;2.88;;;;;;;;;;5011535;28;20507;-50
2021/08/02 08:39:16;;;;;;;5.63;3.80;;;;;;;;;;5010664;28;20291;-47
2021/08/02 08:41:44;;;;;;;6.30;3.13;;;;;;;;;;5011665;28;20192;-50
2021/08/02 08:44:12;;;;;;;6.03;3.28;;;;;;;;;;5011729;28;20034;-49
2021/08/02 08:46:41;;;;;;;5.45;3.08;;;;;;;;;;5010245;28;20042;-51
2021/08/02 08:49:08;;;;;;;4.28;3.03;;;;;;;;;;5010806;28;20129;-50
2021/08/02 08:51:36;;;;;;;4.63;3.10;;;;;;;;;;5011535;28;20503;-51
2021/08/02 08:54:05;;;;;;;5.10;3.42;;;;;;;;;;5010830;28;20058;-52
2021/08/02 08:56:32;;;;;;;6.05;3.55;;;;;;;;;;5011189;28;20070;-48
2021/08/02 08:58:58;;;;;;;6.10;3.20;;;;;;;;;;5010748;28;20085;-51
2021/08/02 09:01:27;;;;;;;4.60;3.25;;;;;;;;;;5011239;28;20077;-49
2021/08/02 09:03:54;;;;;;;7.75;3.28;;;;;;;;;;5009925;28;20049;-52
2021/08/02 09:06:21;;;;;;;3.92;3.08;;;;;;;;;;5031875;23;20073;-50
2021/08/02 09:08:48;;;;;;;7.18;3.58;;;;;;;;;;5005224;28;20086;-47
2021/08/02 09:11:16;;;;;;;5.82;3.50;;;;;;;;;;4990936;28;20078;-51
2021/08/02 09:13:43;;;;;;;5.40;3.45;;;;;;;;;;5007359;28;20073;-50
2021/08/02 09:16:25;;;;;;;5.35;3.40;;;;;;;;;;4992302;28;20550;-51
2021/08/02 09:19:03;;;;;;;4.32;2.58;;;;;;;;;;4991728;28;20073;-50
2021/08/02 09:21:41;;;;;;;4.05;2.47;;;;;;;;;;4992299;28;20101;-50
2021/08/02 09:24:09;;;;;;;4.45;2.20;;;;;;;;;;4990540;28;20117;-51
2021/08/02 09:26:38;;;;;;;4.38;2.25;;;;;;;;;;4992985;28;20070;-52
2021/08/02 09:29:05;;;;;;;4.20;2.55;;;;;;;;;;4993719;28;20039;-48
2021/08/02 09:31:33;;;;;;;4.82;2.72;;;;;;;;;;5007938;28;20130;-52
2021/08/02 09:34:02;;;;;;;3.53;2.20;;;;;;;;;;4993291;28;20052;-49
2021/08/02 09:36:39;;;;;;;4.40;2.28;;;;;;;;;;4992001;28;20042;-50
2021/08/02 09:39:10;;;;;;;4.38;2.47;;;;;;;;;;4991247;28;20474;-48
2021/08/02 09:41:37;;;;;;;4.32;2.38;;;;;;;;;;4991851;28;20066;-49
2021/08/02 09:44:05;;;;;;;3.90;2.70;;;;;;;;;;4991986;28;20409;-49
2021/08/02 09:46:32;;;;;;;4.05;2.67;;;;;;;;;;4990472;28;20097;-54
2021/08/02 09:49:00;;;;;;;3.95;2.78;;;;;;;;;;4991140;28;20042;-51
2021/08/02 09:51:38;;;;;;;5.72;3.65;;;;;;;;;;4991803;28;20136;-50
2021/08/02 09:54:05;;;;;;;7.65;3.60;;;;;;;;;;4992374;28;20050;-51
2021/08/02 09:56:32;;;;;;;7.80;3.13;;;;;;;;;;4991799;28;20047;-52
2021/08/02 09:59:05;;;;;;;4.45;2.63;;;;;;;;;;4989916;28;20419;-52
2021/08/02 10:01:32;;;;;;;5.40;2.83;;;;;;;;;;4991658;28;20070;-53
2021/08/02 10:04:00;;;;;;;4.47;2.80;;;;;;;;;;4992124;28;20069;-50
2021/08/02 10:06:27;;;;;;;3.85;3.05;;;;;;;;;;4994987;28;20050;-49
2021/08/02 10:08:55;;;;;;;5.03;2.85;;;;;;;;;;4993274;28;20472;-48
2021/08/02 10:11:22;;;;;;;4.78;2.65;;;;;;;;;;4995275;28;20496;-52
2021/08/02 10:13:49;;;;;;;3.42;2.55;;;;;;;;;;4995113;28;20046;-47
2021/08/02 10:16:18;;;;;;;5.53;2.80;;;;;;;;;;4993795;28;20046;-50
2021/08/02 10:18:49;;;;;;;3.28;2.45;;;;;;;;;;4994832;28;20038;-49
2021/08/02 10:21:16;;;;;;;4.80;2.53;;;;;;;;;;4997306;28;20296;-51
2021/08/02 10:23:42;;;;;;;6.20;2.75;;;;;;;;;;4996990;28;20070;-49
2021/08/02 10:26:19;;;;;;;4.03;2.78;;;;;;;;;;4978865;28;20081;-50
2021/08/02 10:28:56;;;;;;;6.75;2.60;;;;;;;;;;4993931;28;20042;-51
2021/08/02 10:31:27;;;;;;;5.95;2.75;;;;;;;;;;4997092;28;20132;-48
2021/08/02 10:34:14;;;;;;;3.38;2.53;;;;;;;;;;4996386;28;20165;-49
2021/08/02 10:36:41;;;;;;;3.92;2.60;;;;;;;;;;4993411;28;20109;-47
2021/08/02 10:39:08;;;;;;;4.22;2.30;;;;;;;;;;4994300;28;20046;-46
2021/08/02 10:41:34;;;;;;;4.15;2.60;;;;;;;;;;4994738;28;20137;-50
2021/08/02 10:44:14;;;;;;;5.63;2.83;;;;;;;;;;4994879;28;20427;-48
2021/08/02 10:46:41;;;;;;;4.78;2.60;;;;;;;;;;4994429;28;20113;-49
2021/08/02 10:49:09;;;;;;;4.30;2.70;;;;;;;;;;4993705;28;20042;-47
2021/08/02 10:51:47;;;;;;;4.72;3.42;;;;;;;;;;4994576;28;20042;-47
2021/08/02 10:54:15;;;;;;;4.82;2.65;;;;;;;;;;4994852;28;20062;-48
2021/08/02 10:56:48;;;;;;;5.38;2.50;;;;;;;;;;4994458;28;20073;-50
2021/08/02 10:59:16;;;;;;;3.78;2.53;;;;;;;;;;4994968;28;20072;-50
2021/08/02 11:01:47;;;;;;;3.10;1.85;;;;;;;;;;4993917;28;20069;-48
2021/08/02 11:04:17;;;;;;;4.38;2.30;;;;;;;;;;4995396;28;20421;-47
2021/08/02 11:06:48;;;;;;;3.90;1.80;;;;;;;;;;4994552;28;20053;-47
2021/08/02 11:09:26;;;;;;;3.72;2.05;;;;;;;;;;4993599;28;20400;-47
2021/08/02 11:12:10;;;;;;;3.00;1.88;;;;;;;;;;4994413;28;20040;-48
2021/08/02 11:14:46;;;;;;;4.00;1.83;;;;;;;;;;4993949;28;20467;-48
2021/08/02 11:17:14;;;;;;;2.72;1.80;;;;;;;;;;4975841;28;20191;-49
2021/08/02 11:20:02;;;;;;;3.95;2.33;;;;;;;;;;4993390;28;20446;-50
2021/08/02 11:22:29;;;;;;;4.70;2.95;;;;;;;;;;4993902;28;20046;-52
2021/08/02 11:24:57;;;;;;;5.85;2.63;;;;;;;;;;4993582;28;20077;-51
2021/08/02 11:27:24;;;;;;;4.47;3.22;;;;;;;;;;4993509;28;20121;-52
2021/08/02 11:29:52;;;;;;;4.13;2.60;;;;;;;;;;4993148;28;20038;-51
2021/08/02 11:32:21;;;;;;;3.92;2.67;;;;;;;;;;4993998;28;20049;-48
2021/08/02 11:34:53;;;;;;;4.57;2.70;;;;;;;;;;4993948;28;20046;-52
2021/08/02 11:37:21;;;;;;;18.83;5.18;;;;;;;;;;4993695;28;20039;-51
2021/08/02 11:40:05;;;;;;;4.72;2.47;;;;;;;;;;4993315;28;20047;-48
2021/08/02 11:42:32;;;;;;;5.60;2.30;;;;;;;;;;4994666;28;20074;-50
2021/08/02 11:45:01;;;;;;;3.78;2.35;;;;;;;;;;4993611;28;20081;-49
2021/08/02 11:47:32;;;;;;;3.85;2.38;;;;;;;;;;4993503;28;20185;-49
2021/08/02 11:49:59;;;;;;;3.88;2.42;;;;;;;;;;4993429;28;20042;-51
2021/08/02 11:52:26;;;;;;;3.65;2.30;;;;;;;;;;4992501;28;20057;-49
2021/08/02 11:54:58;;;;;;;4.72;2.45;;;;;;;;;;4993834;28;20504;-49
2021/08/02 11:57:25;;;;;;;3.25;2.28;;;;;;;;;;4993428;28;20039;-52
2021/08/02 11:59:58;;;;;;;3.67;2.00;;;;;;;;;;4992807;28;20046;-49
2021/08/02 12:02:38;;;;;;;3.47;1.90;;;;;;;;;;4993291;28;20054;-52
2021/08/02 12:05:19;;;;;;;4.03;1.90;;;;;;;;;;4993331;28;20488;-53
2021/08/02 12:08:09;;;;;;;3.17;1.65;;;;;;;;;;4992874;28;20129;-48
2021/08/02 12:10:36;;;;;;;3.25;1.70;;;;;;;;;;4993701;28;20100;-49
2021/08/02 12:13:05;;;;;;;3.90;1.58;;;;;;;;;;4992963;28;20038;-51
2021/08/02 12:15:32;;;;;;;2.30;1.60;;;;;;;;;;4992988;28;20348;-48
2021/08/02 12:18:00;;;;;;;1.92;1.48;;;;;;;;;;4992492;28;20050;-52
2021/08/02 12:20:28;;;;;;;1.92;1.33;;;;;;;;;;4993853;28;20050;-50
2021/08/02 12:22:55;;;;;;;4.15;1.50;;;;;;;;;;4993041;28;20054;-49
2021/08/02 12:25:32;;;;;;;3.47;1.83;;;;;;;;;;4992640;28;20050;-50
2021/08/02 12:27:59;;;;;;;4.88;1.55;;;;;;;;;;5006598;28;20042;-48
2021/08/02 12:30:27;;;;;;;2.80;1.63;;;;;;;;;;4992936;28;20116;-48
2021/08/02 12:32:54;;;;;;;2.60;1.50;;;;;;;;;;4993344;28;20073;-50
2021/08/02 12:35:21;;;;;;;3.72;1.75;;;;;;;;;;4993214;28;20062;-50
2021/08/02 12:37:48;;;;;;;3.80;1.63;;;;;;;;;;4992884;28;20042;-51
2021/08/02 12:40:16;;;;;;;2.50;1.45;;;;;;;;;;4991822;28;20057;-51
2021/08/02 12:42:44;;;;;;;3.53;1.90;;;;;;;;;;4992958;28;20058;-52
2021/08/02 12:45:11;;;;;;;2.95;2.13;;;;;;;;;;4993751;28;20411;-53
2021/08/02 12:47:46;;;;;;;2.42;1.30;;;;;;;;;;4990768;28;20567;-47
2021/08/02 12:50:14;;;;;;;3.53;1.77;;;;;;;;;;4991531;28;20057;-54
2021/08/02 12:52:41;;;;;;;2.95;1.85;;;;;;;;;;4992160;28;20100;-50
2021/08/02 12:55:10;;;;;;;4.05;1.67;;;;;;;;;;4991940;28;20038;-49
2021/08/02 12:57:43;;;;;;;2.97;1.63;;;;;;;;;;4992290;28;20133;-51
2021/08/02 13:00:12;;;;;;;2.53;1.60;;;;;;;;;;4991389;28;20060;-50
2021/08/02 13:02:39;;;;;;;3.28;1.70;;;;;;;;;;4992468;28;20042;-50
2021/08/02 13:05:06;;;;;;;2.28;1.58;;;;;;;;;;4991838;28;20061;-51
2021/08/02 13:07:33;;;;;;;6.32;1.77;;;;;;;;;;4991643;28;20109;-52
2021/08/02 13:10:00;;;;;;;2.70;1.92;;;;;;;;;;4991214;28;20042;-51
2021/08/02 13:12:27;;;;;;;2.15;1.35;;;;;;;;;;4991830;28;20070;-52
2021/08/02 13:14:54;;;;;;;3.60;1.88;;;;;;;;;;4990476;28;20046;-51
2021/08/02 13:17:21;;;;;;;2.33;1.70;;;;;;;;;;4991676;28;20137;-51
2021/08/02 13:19:48;;;;;;;2.40;1.50;;;;;;;;;;4991038;28;20125;-49
2021/08/02 13:22:20;;;;;;;2.42;1.50;;;;;;;;;;4991959;28;20129;-53
2021/08/02 13:27:32;;;;;;;2.03;1.25;;;;;;;;;;4991666;28;20066;-52
2021/08/02 13:29:59;;;;;;;2.05;1.42;;;;;;;;;;4990738;28;20364;-49
2021/08/02 13:32:26;;;;;;;2.15;1.63;;;;;;;;;;4991766;28;20547;-50
2021/08/02 13:34:53;;;;;;;2.75;1.55;;;;;;;;;;4991716;28;20546;-51
2021/08/02 13:37:19;;;;;;;3.05;1.50;;;;;;;;;;4991601;28;20097;-48
2021/08/02 13:39:46;;;;;;;3.97;1.48;;;;;;;;;;4992912;28;20486;-53
2021/08/02 13:42:14;;;;;;;4.10;1.90;;;;;;;;;;4997236;28;20042;-48
2021/08/02 13:44:41;;;;;;;2.83;1.60;;;;;;;;;;4995624;28;20046;-50
2021/08/02 13:47:08;;;;;;;2.58;1.60;;;;;;;;;;4996737;28;20062;-50
2021/08/02 13:49:37;;;;;;;2.75;1.70;;;;;;;;;;4996365;28;20046;-54
2021/08/02 13:52:05;;;;;;;3.05;1.52;;;;;;;;;;4997392;28;20090;-52
2021/08/02 13:54:32;;;;;;;3.35;1.80;;;;;;;;;;4996739;28;20050;-51
2021/08/02 13:56:59;;;;;;;3.30;1.60;;;;;;;;;;4995821;28;20042;-53
2021/08/02 13:59:31;;;;;;;2.90;1.60;;;;;;;;;;4998127;28;20046;-51
2021/08/02 14:01:58;;;;;;;3.55;1.70;;;;;;;;;;5015109;28;20038;-54
2021/08/02 14:04:25;;;;;;;2.15;1.58;;;;;;;;;;5014558;28;20038;-48
2021/08/02 14:06:52;;;;;;;2.80;1.60;;;;;;;;;;5014413;28;20527;-48
2021/08/02 14:09:18;;;;;;;3.42;1.67;;;;;;;;;;4995707;28;20121;-48
2021/08/02 14:11:46;;;;;;;4.20;1.70;;;;;;;;;;4994910;28;20038;-50
2021/08/02 14:14:14;;;;;;;2.92;1.60;;;;;;;;;;4994982;28;20113;-49
2021/08/02 14:16:43;;;;;;;2.97;1.70;;;;;;;;;;5009276;28;20226;-51
2021/08/02 14:19:16;;;;;;;2.58;1.60;;;;;;;;;;5013838;28;20073;-54
2021/08/02 14:21:43;;;;;;;2.78;1.70;;;;;;;;;;5014400;28;20049;-50
2021/08/02 14:24:11;;;;;;;3.17;1.73;;;;;;;;;;5013010;28;20069;-52
2021/08/02 14:26:38;;;;;;;2.60;1.60;;;;;;;;;;4995087;28;20042;-53
2021/08/02 14:29:05;;;;;;;3.55;1.70;;;;;;;;;;4993980;28;20566;-48
2021/08/02 14:31:33;;;;;;;2.95;1.60;;;;;;;;;;5013082;28;20345;-50
2021/08/02 14:34:00;;;;;;;4.65;1.50;;;;;;;;;;5012662;28;20041;-53
2021/08/02 14:36:29;;;;;;;2.83;1.60;;;;;;;;;;5012801;28;20054;-49
2021/08/02 14:39:00;;;;;;;2.85;1.50;;;;;;;;;;5011507;28;20476;-51
2021/08/02 14:41:46;;;;;;;2.90;1.40;;;;;;;;;;5014167;28;20069;-48
2021/08/02 14:44:14;;;;;;;2.20;1.35;;;;;;;;;;5013989;28;20160;-51
2021/08/02 14:46:41;;;;;;;2.50;1.40;;;;;;;;;;5014259;28;20516;-50
2021/08/02 14:49:09;;;;;;;3.67;1.75;;;;;;;;;;4994219;28;20077;-51
2021/08/02 14:51:35;;;;;;;2.75;1.33;;;;;;;;;;4993668;28;20465;-48
2021/08/02 14:54:03;;;;;;;2.33;1.55;;;;;;;;;;4994271;28;20046;-53
2021/08/02 14:56:31;;;;;;;2.33;1.33;;;;;;;;;;5005321;28;20046;-49